Time;durP1;ratioP1;P1;durP2;ratioP2;P2;SDS_P1;SDS_P2;PMS_P1;PMS_P2;Temp;Humidity;BMP_temperature;BMP_pressure;BME280_temperature;BME280_humidity;BME280_pressure;Samples;Min_cycle;Max_cycle;Signal;HPM_P1;HPM_P2
2022/11/22 00:31:35;;;;;;;23.38;17.40;;;;;;;-1.50;88.84;99516.28;4947894;29;20062;-78
2022/11/22 00:38:26;;;;;;;24.83;18.58;;;;;;;-1.51;89.20;99504.28;4947600;29;20046;-77
2022/11/22 00:40:55;;;;;;;24.40;18.20;;;;;;;-1.45;88.65;99492.94;4950201;29;20150;-77
2022/11/22 00:43:22;;;;;;;25.20;19.08;;;;;;;-1.42;88.66;99490.28;4932240;29;20129;-77
2022/11/22 00:45:49;;;;;;;24.20;18.08;;;;;;;-1.42;88.63;99500.59;4949824;28;20115;-78
2022/11/22 00:48:16;;;;;;;28.95;19.95;;;;;;;-1.49;88.88;99506.81;4954010;28;20087;-79
2022/11/22 00:50:44;;;;;;;26.08;19.13;;;;;;;-1.55;88.89;99493.19;4955266;28;20047;-78
2022/11/22 01:15:19;;;;;;;27.90;20.13;;;;;;;-1.45;88.27;99486.03;4962189;29;20167;-78
2022/11/22 01:17:46;;;;;;;27.52;20.38;;;;;;;-1.50;88.68;99482.75;4974423;28;20119;-77
2022/11/22 01:20:13;;;;;;;27.45;20.05;;;;;;;-1.60;89.11;99479.56;4960811;28;20150;-76
2022/11/22 01:31:18;;;;;;;28.58;20.63;;;;;;;-1.55;89.10;99477.72;4950309;28;20037;-77
2022/11/22 01:51:30;;;;;;;25.50;20.02;;;;;;;-1.59;88.56;99496.75;4947430;28;20613;-77
2022/11/22 01:54:01;;;;;;;25.70;18.90;;;;;;;-1.65;89.04;99502.09;4949867;28;20122;-79
2022/11/22 01:56:28;;;;;;;26.20;19.38;;;;;;;-1.62;89.23;99495.97;4947712;28;20051;-77
2022/11/22 02:03:16;;;;;;;25.77;18.80;;;;;;;-1.54;88.99;99500.03;4944183;28;20093;-76
2022/11/22 02:14:34;;;;;;;31.13;20.05;;;;;;;-1.47;88.24;99485.25;4941995;28;20041;-75
2022/11/22 02:17:01;;;;;;;27.30;20.05;;;;;;;-1.46;88.14;99489.50;4923566;28;20063;-77
2022/11/22 02:19:52;;;;;;;28.65;20.25;;;;;;;-1.49;88.59;99487.00;4939785;28;20055;-76
2022/11/22 02:35:19;;;;;;;25.70;18.67;;;;;;;-1.56;89.10;99462.28;4946264;28;20054;-78
2022/11/22 02:37:51;;;;;;;25.70;18.27;;;;;;;-1.58;89.29;99457.13;4948717;28;20822;-77
2022/11/22 02:40:19;;;;;;;25.55;17.88;;;;;;;-1.65;89.48;99449.63;4949633;28;20109;-77
2022/11/22 03:00:39;;;;;;;28.98;19.67;;;;;;;-1.57;89.38;99448.53;4943753;28;20105;-77
2022/11/22 03:03:06;;;;;;;29.65;20.35;;;;;;;-1.56;89.56;99444.22;4943711;28;20082;-76
2022/11/22 03:05:34;;;;;;;28.45;19.63;;;;;;;-1.64;89.96;99438.41;4946307;28;20142;-78
2022/11/22 03:08:01;;;;;;;30.05;20.83;;;;;;;-1.66;90.19;99437.63;4942610;28;20138;-77
2022/11/22 03:10:28;;;;;;;26.75;18.30;;;;;;;-1.63;90.35;99428.03;4959265;28;20092;-78
2022/11/22 03:12:57;;;;;;;28.67;19.92;;;;;;;-1.70;90.42;99426.53;4948502;28;20635;-75
2022/11/22 03:15:24;;;;;;;27.58;19.45;;;;;;;-1.72;90.53;99433.47;4947124;28;20151;-77
2022/11/22 03:17:59;;;;;;;31.23;20.52;;;;;;;-1.65;90.35;99431.56;4948788;28;20122;-77
2022/11/22 03:20:27;;;;;;;29.63;20.42;;;;;;;-1.68;90.46;99426.50;4941250;28;20076;-79
2022/11/22 03:22:54;;;;;;;27.67;19.23;;;;;;;-1.76;90.90;99436.16;4953940;28;20102;-78
2022/11/22 03:25:22;;;;;;;28.50;19.95;;;;;;;-1.75;90.99;99433.56;4958145;28;20051;-78
2022/11/22 03:27:50;;;;;;;29.20;19.95;;;;;;;-1.77;91.47;99432.75;4955475;28;20074;-78
2022/11/22 03:30:17;;;;;;;26.63;19.40;;;;;;;-1.70;91.20;99431.69;4961968;28;20104;-80
2022/11/22 03:32:45;;;;;;;25.30;18.98;;;;;;;-1.65;91.00;99426.41;4963585;28;20640;-80
2022/11/22 03:39:31;;;;;;;27.02;18.02;;;;;;;-1.60;90.58;99433.13;4942825;28;20054;-78
2022/11/22 03:41:59;;;;;;;30.00;19.55;;;;;;;-1.55;90.67;99441.56;4947834;28;20171;-77
2022/11/22 03:44:26;;;;;;;27.77;19.35;;;;;;;-1.50;90.25;99440.59;4951802;28;20054;-77
2022/11/22 03:46:53;;;;;;;24.35;18.38;;;;;;;-1.46;90.22;99432.72;4930213;28;20062;-78
2022/11/22 03:49:20;;;;;;;28.83;19.48;;;;;;;-1.50;90.11;99418.22;4980246;28;20055;-79
2022/11/22 03:51:48;;;;;;;29.13;19.98;;;;;;;-1.49;89.87;99419.91;4947987;28;20047;-79
2022/11/22 03:54:15;;;;;;;29.23;20.35;;;;;;;-1.49;90.11;99416.47;4950893;28;20091;-78
2022/11/22 03:56:42;;;;;;;28.13;19.85;;;;;;;-1.58;90.23;99412.44;4947177;28;20105;-78
2022/11/22 03:59:10;;;;;;;29.30;19.33;;;;;;;-1.59;90.35;99416.75;4949599;28;20063;-79
2022/11/22 04:01:37;;;;;;;31.10;19.17;;;;;;;-1.58;90.70;99409.84;4950012;28;20055;-79
2022/11/22 04:04:04;;;;;;;30.40;19.23;;;;;;;-1.57;90.42;99406.41;4948883;28;20086;-77
2022/11/22 04:06:32;;;;;;;31.60;20.77;;;;;;;-1.63;90.60;99402.22;4952282;28;20060;-77
2022/11/22 04:08:59;;;;;;;30.85;20.27;;;;;;;-1.62;90.74;99406.53;4933954;28;20677;-79
2022/11/22 04:11:27;;;;;;;32.80;21.65;;;;;;;-1.65;91.20;99405.78;4946275;28;20071;-78
2022/11/22 04:53:47;;;;;;;37.53;24.67;;;;;;;-1.36;91.33;99395.41;4939154;28;20054;-79
2022/11/22 06:11:27;;;;;;;42.70;27.52;;;;;;;-1.16;93.77;99407.75;4953862;28;20054;-77
2022/11/22 07:37:30;;;;;;;39.50;24.65;;;;;;;-0.62;93.24;99466.34;4932629;28;20036;-76
2022/11/22 07:53:10;;;;;;;40.53;25.05;;;;;;;-0.59;93.82;99447.28;4898412;28;20187;-76
2022/11/22 08:22:32;;;;;;;40.92;25.88;;;;;;;-0.22;95.03;99412.47;4939341;28;20051;-77
2022/11/22 08:38:07;;;;;;;41.90;25.67;;;;;;;-0.01;94.60;99404.78;4954833;28;20046;-76
2022/11/22 08:53:52;;;;;;;39.83;25.00;;;;;;;0.09;94.76;99420.84;4937678;29;20719;-76
2022/11/22 08:56:19;;;;;;;45.20;26.42;;;;;;;0.18;94.99;99427.41;4936131;28;20161;-77
2022/11/22 08:58:47;;;;;;;45.95;25.42;;;;;;;0.21;94.69;99437.66;4963327;28;20043;-77
2022/11/22 09:01:16;;;;;;;45.83;26.00;;;;;;;0.22;94.47;99435.00;4907091;28;20117;-76
2022/11/22 09:03:44;;;;;;;45.25;26.40;;;;;;;0.27;94.73;99434.88;4943272;28;20582;-77
2022/11/22 09:06:13;;;;;;;45.15;24.92;;;;;;;0.31;94.77;99438.19;4945398;28;20154;-77
2022/11/22 09:09:00;;;;;;;43.72;25.33;;;;;;;0.29;95.16;99440.00;4950871;29;20089;-79
2022/11/22 09:11:47;;;;;;;43.70;25.13;;;;;;;0.32;94.92;99456.25;4982005;28;20063;-76
2022/11/22 09:14:15;;;;;;;47.05;25.40;;;;;;;0.39;94.66;99467.22;4970575;28;20047;-75
2022/11/22 09:16:42;;;;;;;50.10;26.55;;;;;;;0.50;95.47;99471.13;4967201;28;20474;-78
2022/11/22 09:19:10;;;;;;;47.63;25.73;;;;;;;0.56;95.94;99470.06;4939592;28;20055;-77
2022/11/22 09:21:37;;;;;;;50.53;26.75;;;;;;;0.60;95.92;99460.44;4929732;28;20044;-77
2022/11/22 09:24:54;;;;;;;45.75;26.05;;;;;;;0.71;95.71;99468.63;4942112;28;20055;-78
2022/11/22 09:27:46;;;;;;;45.53;25.75;;;;;;;0.75;95.39;99470.22;4943241;28;20141;-78
2022/11/22 09:30:14;;;;;;;47.67;27.33;;;;;;;0.74;94.90;99464.19;4965862;28;20093;-77
2022/11/22 09:32:49;;;;;;;48.28;25.98;;;;;;;0.77;95.29;99463.25;4965264;28;20074;-78
2022/11/22 09:35:19;;;;;;;54.22;27.27;;;;;;;0.72;94.86;99455.66;4954930;28;20071;-77
2022/11/22 09:37:46;;;;;;;46.33;26.45;;;;;;;0.78;95.20;99453.72;4952389;28;20092;-77
2022/11/22 09:40:14;;;;;;;45.53;26.10;;;;;;;0.85;94.96;99463.78;4953621;29;20063;-76
2022/11/22 09:42:53;;;;;;;48.05;26.48;;;;;;;0.87;94.74;99454.22;4960814;28;20087;-77
2022/11/22 09:45:34;;;;;;;51.78;28.17;;;;;;;0.91;94.75;99458.38;4962751;28;20046;-77
2022/11/22 09:48:14;;;;;;;49.88;26.35;;;;;;;0.93;93.64;99463.50;4953457;28;20043;-78
2022/11/22 09:51:08;;;;;;;44.33;26.15;;;;;;;0.92;93.75;99467.84;4948276;28;20051;-76
2022/11/22 09:53:47;;;;;;;46.70;25.48;;;;;;;0.96;94.04;99473.75;4947816;28;20074;-78
2022/11/22 09:56:15;;;;;;;49.72;25.30;;;;;;;1.00;94.30;99476.19;4944260;28;20066;-75
2022/11/22 09:58:50;;;;;;;45.28;24.85;;;;;;;1.03;94.21;99480.38;4972820;28;20063;-75
2022/11/22 10:01:37;;;;;;;50.43;26.93;;;;;;;1.04;94.12;99481.22;4957921;28;20056;-76
2022/11/22 10:04:26;;;;;;;47.67;26.85;;;;;;;1.08;94.13;99480.19;4987166;28;20059;-76
2022/11/22 10:07:00;;;;;;;49.45;27.33;;;;;;;1.07;93.72;99481.13;4944078;29;20147;-78
2022/11/22 10:09:50;;;;;;;54.00;27.95;;;;;;;1.11;94.66;99478.34;4949239;28;20047;-76
2022/11/22 10:12:33;;;;;;;46.63;25.73;;;;;;;1.09;94.27;99480.16;4943542;29;20047;-77
2022/11/22 10:15:13;;;;;;;94.72;53.33;;;;;;;1.07;93.84;99475.94;4976656;28;20079;-79
2022/11/22 10:17:56;;;;;;;64.32;36.15;;;;;;;1.10;94.08;99471.47;4968327;28;20055;-78
2022/11/22 10:20:26;;;;;;;51.45;26.02;;;;;;;1.13;94.33;99479.16;4949466;28;20135;-80
2022/11/22 10:22:57;;;;;;;49.58;27.98;;;;;;;1.18;94.25;99474.63;4960792;28;20055;-75
2022/11/22 10:26:15;;;;;;;51.75;27.02;;;;;;;1.19;94.63;99472.88;4933495;28;20055;-77
2022/11/22 10:30:20;;;;;;;47.20;25.85;;;;;;;1.23;94.38;99475.28;4950880;29;20042;-77
2022/11/22 10:34:26;;;;;;;51.63;26.40;;;;;;;1.24;94.20;99478.72;4940123;28;20257;-77
2022/11/22 10:38:07;;;;;;;48.25;26.45;;;;;;;1.23;94.10;99477.03;4939807;28;20399;-77
2022/11/22 10:40:48;;;;;;;50.90;27.08;;;;;;;1.24;94.56;99484.75;4949088;29;20067;-76
2022/11/22 10:43:24;;;;;;;49.50;25.42;;;;;;;1.26;93.93;99482.94;4963437;28;20071;-76
2022/11/22 10:46:09;;;;;;;46.47;26.23;;;;;;;1.26;94.37;99479.50;4937475;28;20117;-78
2022/11/22 10:48:59;;;;;;;47.00;25.60;;;;;;;1.28;94.20;99490.66;4985256;28;20093;-77
2022/11/22 10:51:46;;;;;;;50.55;27.92;;;;;;;1.25;94.14;99481.25;4936090;28;20210;-78
2022/11/22 10:54:21;;;;;;;47.63;26.20;;;;;;;1.24;94.70;99476.97;4961986;28;20051;-77
2022/11/22 10:56:54;;;;;;;49.53;25.77;;;;;;;1.27;95.01;99476.00;4950761;28;20264;-76
2022/11/22 10:59:24;;;;;;;52.25;26.38;;;;;;;1.31;94.99;99475.00;4950851;28;20066;-76
2022/11/22 11:02:02;;;;;;;53.85;26.65;;;;;;;1.37;95.37;99477.34;4952095;28;20067;-76
2022/11/22 11:04:33;;;;;;;49.40;26.52;;;;;;;1.40;94.79;99469.44;4958609;28;20126;-76
2022/11/22 11:07:02;;;;;;;49.13;27.67;;;;;;;1.44;94.99;99477.91;4934220;28;20044;-76
2022/11/22 11:09:47;;;;;;;54.90;28.05;;;;;;;1.37;94.90;99485.13;4940573;29;20147;-77
2022/11/22 11:12:41;;;;;;;51.38;26.95;;;;;;;1.36;95.38;99480.00;4947163;28;20078;-79
2022/11/22 11:15:21;;;;;;;49.95;26.40;;;;;;;1.43;95.69;99484.00;4955484;28;20059;-76
2022/11/22 11:17:54;;;;;;;57.33;28.58;;;;;;;1.43;95.20;99479.66;4942969;29;20103;-77
2022/11/22 11:20:26;;;;;;;48.50;27.63;;;;;;;1.45;95.43;99471.84;4967941;28;20531;-77
2022/11/22 11:22:53;;;;;;;53.75;28.83;;;;;;;1.45;95.42;99459.72;4945328;28;20115;-75
2022/11/22 11:25:42;;;;;;;52.85;27.27;;;;;;;1.48;95.65;99459.56;4932866;28;20051;-77
2022/11/22 11:28:19;;;;;;;49.88;26.70;;;;;;;1.57;94.99;99460.13;4962744;28;20048;-77
2022/11/22 11:31:00;;;;;;;48.05;28.20;;;;;;;1.58;94.95;99454.88;4923914;28;20051;-75
2022/11/22 11:33:30;;;;;;;50.00;25.33;;;;;;;1.64;94.98;99448.59;4940294;28;20119;-76
2022/11/22 12:14:53;;;;;;;48.42;26.50;;;;;;;2.02;94.52;99457.34;4951709;28;20046;-77
2022/11/22 12:44:10;;;;;;;48.03;26.17;;;;;;;1.99;94.79;99427.19;4952097;29;20046;-76
2022/11/22 13:00:05;;;;;;;52.47;25.40;;;;;;;2.26;94.54;99452.88;4951891;28;20608;-77
2022/11/22 15:08:04;;;;;;;44.67;24.80;;;;;;;2.48;94.69;99435.44;4949700;29;20100;-78
2022/11/22 15:11:24;;;;;;;48.78;26.42;;;;;;;2.49;94.26;99431.09;4943295;28;20094;-77
2022/11/22 15:14:00;;;;;;;51.78;27.48;;;;;;;2.49;94.46;99437.13;4946070;28;20036;-77
2022/11/22 15:16:30;;;;;;;45.67;25.20;;;;;;;2.46;94.56;99434.66;4931466;28;20079;-78
2022/11/22 15:19:51;;;;;;;47.28;25.13;;;;;;;2.48;94.84;99447.59;4932209;28;20074;-76
2022/11/22 15:22:40;;;;;;;46.80;25.42;;;;;;;2.52;94.94;99446.50;4953907;28;20546;-77
2022/11/22 15:25:28;;;;;;;45.75;24.50;;;;;;;2.49;94.29;99457.06;4950625;28;20056;-78
2022/11/22 15:28:24;;;;;;;47.45;25.23;;;;;;;2.49;94.93;99457.06;4955123;28;20075;-78
2022/11/22 15:31:16;;;;;;;54.75;28.20;;;;;;;2.52;94.46;99449.97;4922372;28;20070;-78
2022/11/22 15:34:19;;;;;;;43.65;25.73;;;;;;;2.46;94.96;99442.44;4930104;28;20047;-78
2022/11/22 15:37:16;;;;;;;52.13;25.48;;;;;;;2.42;95.08;99450.44;4945217;29;20249;-78
2022/11/22 15:40:15;;;;;;;48.05;27.08;;;;;;;2.45;95.27;99455.50;4938509;28;20074;-78
2022/11/22 15:43:03;;;;;;;54.38;28.35;;;;;;;2.40;95.12;99458.31;4952724;28;20098;-78
2022/11/22 15:45:51;;;;;;;50.85;26.80;;;;;;;2.34;95.48;99457.72;4963858;28;20055;-76
2022/11/22 15:48:43;;;;;;;51.97;27.15;;;;;;;2.34;95.31;99468.09;4955656;28;20115;-74
2022/11/22 15:51:34;;;;;;;49.95;26.52;;;;;;;2.40;95.41;99466.09;4959076;28;20359;-77
2022/11/22 15:54:36;;;;;;;49.83;25.85;;;;;;;2.41;95.21;99472.97;4959262;28;20035;-77
2022/11/22 15:57:28;;;;;;;48.50;26.35;;;;;;;2.40;95.36;99478.25;4936485;28;20059;-78
2022/11/22 15:59:56;;;;;;;51.40;26.30;;;;;;;2.42;95.63;99469.47;4944444;28;20063;-78
2022/11/22 16:02:26;;;;;;;46.63;24.80;;;;;;;2.46;95.07;99470.19;4945172;28;20109;-78
2022/11/22 16:05:05;;;;;;;54.42;28.30;;;;;;;2.45;95.06;99471.94;4938286;28;20230;-78
2022/11/22 16:07:54;;;;;;;48.47;26.33;;;;;;;2.44;95.15;99479.81;4960721;28;20052;-77
2022/11/22 16:10:41;;;;;;;47.45;26.70;;;;;;;2.41;95.39;99472.97;4950166;28;20749;-77
2022/11/22 16:13:19;;;;;;;51.00;27.02;;;;;;;2.41;95.24;99475.56;4942805;28;20105;-77
2022/11/22 16:16:25;;;;;;;47.47;26.13;;;;;;;2.42;95.48;99468.63;4944656;28;20712;-75
2022/11/22 16:18:53;;;;;;;49.13;26.33;;;;;;;2.43;95.12;99465.09;4930517;28;20151;-74
2022/11/22 16:21:27;;;;;;;49.10;26.40;;;;;;;2.42;94.81;99461.66;4908408;28;20517;-77
2022/11/22 16:24:17;;;;;;;49.22;25.92;;;;;;;2.39;95.06;99455.78;4941178;28;20059;-76
2022/11/22 16:26:55;;;;;;;50.70;27.67;;;;;;;2.32;95.70;99464.75;4925324;28;20085;-77
2022/11/22 16:29:25;;;;;;;50.55;27.13;;;;;;;2.34;96.37;99466.34;4929289;28;20083;-77
2022/11/22 18:09:37;;;;;;;50.38;26.73;;;;;;;2.57;95.81;99547.63;4945570;28;20062;-77
2022/11/22 18:12:04;;;;;;;48.22;27.02;;;;;;;2.58;95.64;99549.34;4933894;28;20070;-77
2022/11/22 18:14:33;;;;;;;56.67;28.00;;;;;;;2.54;95.36;99553.81;4931176;28;20110;-76
2022/11/22 18:17:00;;;;;;;54.65;28.63;;;;;;;2.51;95.38;99553.94;4953231;28;20086;-75
2022/11/22 18:19:28;;;;;;;56.78;28.30;;;;;;;2.51;96.32;99554.78;4936313;28;20598;-76
2022/11/22 18:21:59;;;;;;;58.28;29.10;;;;;;;2.57;95.79;99555.41;4946219;28;20131;-75
2022/11/22 18:24:26;;;;;;;52.17;28.02;;;;;;;2.61;96.23;99551.78;4937271;28;20064;-75
2022/11/22 18:26:53;;;;;;;54.67;28.67;;;;;;;2.64;95.85;99559.47;4946013;28;20055;-76
2022/11/22 18:29:21;;;;;;;54.60;28.17;;;;;;;2.65;95.43;99561.13;4958982;28;20423;-75
2022/11/22 18:32:09;;;;;;;52.28;27.42;;;;;;;2.65;94.80;99550.75;4946836;28;20055;-75
2022/11/22 18:34:36;;;;;;;54.42;28.13;;;;;;;2.67;94.66;99554.13;4932997;28;20044;-76
2022/11/22 18:37:03;;;;;;;54.60;28.38;;;;;;;2.66;95.38;99555.06;4944387;28;20331;-76
2022/11/22 18:39:36;;;;;;;56.13;27.48;;;;;;;2.65;95.37;99561.13;4942984;29;20082;-77
2022/11/22 18:42:07;;;;;;;53.65;27.20;;;;;;;2.64;95.05;99562.06;4991946;28;20150;-75
2022/11/22 18:44:34;;;;;;;60.90;28.42;;;;;;;2.63;95.18;99561.22;4948578;28;20113;-77
2022/11/22 18:51:45;;;;;;;53.15;27.88;;;;;;;2.61;95.64;99555.25;4944301;28;20058;-76
2022/11/22 18:54:14;;;;;;;48.45;26.02;;;;;;;2.59;95.50;99551.88;4948174;28;20083;-77
2022/11/22 18:56:42;;;;;;;51.67;27.80;;;;;;;2.56;95.51;99551.16;4949996;28;20580;-77
2022/11/22 18:59:12;;;;;;;55.70;27.85;;;;;;;2.53;95.43;99552.97;4951931;28;20038;-77
